Time;durP1;ratioP1;P1;durP2;ratioP2;P2;SDS_P1;SDS_P2;PMS_P1;PMS_P2;Temp;Humidity;BMP_temperature;BMP_pressure;BME280_temperature;BME280_humidity;BME280_pressure;Samples;Min_cycle;Max_cycle;Signal;HPM_P1;HPM_P2
2022/12/19 04:01:50;;;;;;;14.83;13.33;;;1.60;87.80;;;;;;5560656;23;20491;-72
2022/12/19 04:04:17;;;;;;;14.60;11.77;;;1.60;87.40;;;;;;5013604;28;20536;-73
2022/12/19 04:06:45;;;;;;;14.30;12.80;;;1.70;87.60;;;;;;5013557;28;20448;-72
2022/12/19 04:09:13;;;;;;;14.77;11.10;;;1.70;87.60;;;;;;5013542;28;20452;-72
2022/12/19 04:11:44;;;;;;;14.03;11.47;;;1.70;87.70;;;;;;5013436;28;20873;-72
2022/12/19 04:14:19;;;;;;;14.07;12.33;;;1.80;87.40;;;;;;5014868;28;20428;-72
2022/12/19 04:16:55;;;;;;;14.07;11.90;;;1.80;87.80;;;;;;5017311;28;20439;-72
2022/12/19 04:19:29;;;;;;;13.47;12.10;;;1.90;87.40;;;;;;5017534;28;20428;-72
2022/12/19 04:22:04;;;;;;;16.37;13.80;;;2.00;87.40;;;;;;5017713;28;20470;-72
2022/12/19 04:24:35;;;;;;;14.13;12.27;;;2.10;87.00;;;;;;5017179;28;20913;-73
2022/12/19 04:27:05;;;;;;;15.00;12.30;;;2.20;86.90;;;;;;5017425;28;20435;-69
2022/12/19 04:29:33;;;;;;;14.70;12.20;;;2.20;86.80;;;;;;5017313;28;20447;-71
2022/12/19 04:32:05;;;;;;;16.70;13.10;;;2.20;87.00;;;;;;5017235;28;20483;-73
2022/12/19 04:34:32;;;;;;;14.90;12.03;;;2.20;87.20;;;;;;5017576;28;20436;-72
2022/12/19 04:36:59;;;;;;;16.53;12.53;;;2.20;87.50;;;;;;5016893;28;20946;-72
2022/12/19 04:39:27;;;;;;;14.50;12.27;;;2.30;87.70;;;;;;5017067;28;20455;-72
2022/12/19 04:41:53;;;;;;;13.53;11.37;;;2.30;87.10;;;;;;5017058;28;20475;-72
2022/12/19 04:44:20;;;;;;;13.33;11.93;;;2.30;87.60;;;;;;5016766;28;20961;-72
2022/12/19 04:46:47;;;;;;;13.17;11.87;;;2.40;87.70;;;;;;5016745;28;20441;-72
2022/12/19 04:49:15;;;;;;;13.07;11.67;;;2.50;87.90;;;;;;5016980;28;20452;-73
2022/12/19 04:51:41;;;;;;;13.70;11.67;;;2.60;87.70;;;;;;5016551;28;20893;-72
2022/12/19 04:54:08;;;;;;;16.23;12.17;;;2.60;87.30;;;;;;5016923;28;20456;-73
2022/12/19 04:56:35;;;;;;;15.30;13.57;;;2.60;87.60;;;;;;5016843;28;20455;-70
2022/12/19 04:59:02;;;;;;;15.70;12.20;;;2.70;87.50;;;;;;5016495;28;20444;-70
2022/12/19 05:01:28;;;;;;;14.53;11.80;;;2.60;87.40;;;;;;5016461;28;20504;-70
2022/12/19 05:03:55;;;;;;;17.37;13.93;;;2.70;87.80;;;;;;5016409;28;20451;-70
2022/12/19 05:06:23;;;;;;;12.43;11.17;;;2.70;87.60;;;;;;5016659;28;20451;-70
2022/12/19 05:08:50;;;;;;;14.60;12.10;;;2.60;88.00;;;;;;5016904;28;20448;-71
2022/12/19 05:11:17;;;;;;;14.37;12.90;;;2.70;88.30;;;;;;5016500;28;20467;-72
2022/12/19 05:13:44;;;;;;;15.90;11.57;;;2.80;88.20;;;;;;5016550;28;20448;-72
2022/12/19 05:16:12;;;;;;;14.67;11.87;;;2.80;88.10;;;;;;5016460;28;20448;-72
2022/12/19 05:18:39;;;;;;;13.13;11.27;;;2.80;88.20;;;;;;5016446;28;20449;-72
2022/12/19 05:21:07;;;;;;;13.13;11.73;;;2.90;88.20;;;;;;5016309;28;20516;-72
2022/12/19 05:23:35;;;;;;;14.50;10.70;;;3.00;88.10;;;;;;5016609;28;20440;-73
2022/12/19 05:26:04;;;;;;;13.23;11.07;;;3.00;88.00;;;;;;5015869;28;20448;-73
2022/12/19 05:28:31;;;;;;;12.70;10.70;;;3.00;87.90;;;;;;5015954;28;20968;-72
2022/12/19 05:31:06;;;;;;;11.77;10.47;;;3.00;87.90;;;;;;5016157;28;20507;-72
2022/12/19 05:33:33;;;;;;;12.00;10.70;;;2.90;88.50;;;;;;5016170;28;20518;-73
2022/12/19 05:36:00;;;;;;;11.83;9.73;;;2.90;88.20;;;;;;5016123;28;20452;-71
2022/12/19 05:38:27;;;;;;;11.20;10.00;;;2.90;88.50;;;;;;5016054;28;20445;-72
2022/12/19 05:40:55;;;;;;;10.77;9.20;;;2.80;88.80;;;;;;5015556;28;20876;-72
2022/12/19 05:43:22;;;;;;;11.70;9.50;;;2.80;88.90;;;;;;5015985;28;20462;-72
2022/12/19 05:45:49;;;;;;;12.77;9.67;;;2.80;89.00;;;;;;5015931;28;20509;-72
2022/12/19 05:48:16;;;;;;;11.57;9.87;;;2.70;89.20;;;;;;5015587;28;20942;-72
2022/12/19 05:50:47;;;;;;;11.33;8.87;;;2.80;89.60;;;;;;5015788;28;20468;-72
2022/12/19 05:53:14;;;;;;;11.97;10.77;;;2.80;89.30;;;;;;5015853;28;20440;-73
2022/12/19 05:55:41;;;;;;;12.57;10.53;;;2.90;89.40;;;;;;5015805;28;20455;-73
2022/12/19 05:58:09;;;;;;;12.43;10.50;;;3.00;89.10;;;;;;5015428;28;20953;-73
2022/12/19 06:00:35;;;;;;;12.93;10.13;;;3.10;89.00;;;;;;5015669;28;20491;-73
2022/12/19 06:03:02;;;;;;;12.10;9.63;;;3.00;88.60;;;;;;5015670;28;20452;-73
2022/12/19 06:05:29;;;;;;;11.50;10.27;;;2.90;89.10;;;;;;5015567;28;20448;-73
2022/12/19 06:07:56;;;;;;;12.60;9.70;;;2.90;89.60;;;;;;5015555;28;20452;-72
2022/12/19 06:10:22;;;;;;;10.87;9.50;;;2.80;89.60;;;;;;5015082;28;20444;-72
2022/12/19 06:12:49;;;;;;;11.47;9.40;;;2.90;90.00;;;;;;5015428;28;20506;-73
2022/12/19 06:15:17;;;;;;;12.60;11.20;;;2.90;89.90;;;;;;5015086;28;20449;-72
2022/12/19 06:17:44;;;;;;;11.23;9.10;;;2.90;89.90;;;;;;5015401;28;20452;-73
2022/12/19 06:20:11;;;;;;;12.40;9.80;;;2.80;90.00;;;;;;5015261;28;20480;-74
2022/12/19 06:22:38;;;;;;;10.67;9.57;;;2.80;90.10;;;;;;5014857;28;21008;-73
2022/12/19 06:25:05;;;;;;;12.33;10.50;;;3.00;92.00;;;;;;5015171;28;20456;-72
2022/12/19 06:27:33;;;;;;;12.23;10.97;;;3.00;91.10;;;;;;5014753;28;20452;-73
2022/12/19 06:29:59;;;;;;;9.77;8.20;;;3.10;90.10;;;;;;5014988;28;20459;-72
2022/12/19 06:32:27;;;;;;;11.83;10.00;;;3.10;89.60;;;;;;5014949;28;20472;-72
2022/12/19 06:34:54;;;;;;;13.70;11.60;;;3.10;89.50;;;;;;5014994;28;20452;-73
2022/12/19 06:37:21;;;;;;;11.13;10.03;;;3.10;89.70;;;;;;5014158;28;20444;-72
2022/12/19 06:39:49;;;;;;;12.73;10.67;;;3.10;89.50;;;;;;5014893;28;20949;-73
2022/12/19 06:42:24;;;;;;;10.50;9.10;;;3.10;89.80;;;;;;5014488;28;20874;-73
2022/12/19 06:44:52;;;;;;;10.00;9.00;;;3.20;89.80;;;;;;5014863;28;20424;-72
2022/12/19 06:47:19;;;;;;;11.00;8.93;;;3.20;89.60;;;;;;5014422;28;20821;-72
2022/12/19 06:49:48;;;;;;;10.80;9.53;;;3.20;89.80;;;;;;5014702;28;20444;-73
2022/12/19 06:52:16;;;;;;;10.70;9.60;;;3.20;89.70;;;;;;5014324;28;20464;-73
2022/12/19 06:54:43;;;;;;;9.97;8.97;;;3.30;89.90;;;;;;5014563;28;20522;-73
2022/12/19 06:57:09;;;;;;;9.63;8.53;;;3.40;89.50;;;;;;5014579;28;20448;-73
2022/12/19 06:59:36;;;;;;;11.10;8.97;;;3.40;89.70;;;;;;5014540;28;20448;-73
2022/12/19 07:02:11;;;;;;;9.33;8.33;;;3.50;89.60;;;;;;5014312;28;20884;-73
2022/12/19 07:04:40;;;;;;;11.33;9.40;;;3.50;89.30;;;;;;5014467;28;20447;-71
2022/12/19 07:07:08;;;;;;;11.70;9.27;;;3.50;89.20;;;;;;5014701;28;20448;-73
2022/12/19 07:09:35;;;;;;;10.93;8.97;;;3.40;89.50;;;;;;5014342;28;20455;-74
2022/12/19 07:12:02;;;;;;;12.60;10.30;;;3.50;89.70;;;;;;5014220;28;20461;-73
2022/12/19 07:14:29;;;;;;;12.33;10.90;;;3.60;89.40;;;;;;5014349;28;20463;-73
2022/12/19 07:16:59;;;;;;;13.93;10.10;;;3.50;89.20;;;;;;5014332;28;20458;-74
2022/12/19 07:19:27;;;;;;;9.40;8.43;;;3.50;89.00;;;;;;5014308;28;20444;-72
2022/12/19 07:21:54;;;;;;;14.43;10.70;;;3.50;89.20;;;;;;5013694;28;20903;-71
2022/12/19 07:24:22;;;;;;;11.17;10.07;;;3.40;89.30;;;;;;5015022;28;20448;-70
2022/12/19 07:26:50;;;;;;;12.03;10.43;;;3.30;89.40;;;;;;5016316;28;20455;-71
2022/12/19 07:29:17;;;;;;;13.50;11.37;;;3.40;89.50;;;;;;5015920;28;20470;-72
2022/12/19 07:31:44;;;;;;;15.03;11.43;;;3.40;89.20;;;;;;5015661;28;20477;-71
2022/12/19 07:34:11;;;;;;;12.57;10.40;;;3.30;89.10;;;;;;5014084;28;20456;-71
2022/12/19 07:36:38;;;;;;;10.07;9.00;;;3.30;89.60;;;;;;5014358;28;20974;-72
2022/12/19 07:39:04;;;;;;;12.37;10.57;;;3.30;89.80;;;;;;5022237;28;20536;-74
2022/12/19 07:41:35;;;;;;;12.90;9.83;;;3.40;89.60;;;;;;5018083;28;20491;-72
2022/12/19 07:44:02;;;;;;;11.77;10.67;;;3.30;89.60;;;;;;5016575;28;20805;-73
2022/12/19 07:46:29;;;;;;;12.73;10.97;;;3.30;89.80;;;;;;5017094;28;20459;-72
2022/12/19 07:48:59;;;;;;;12.70;10.30;;;3.40;89.50;;;;;;5017532;28;20456;-72
2022/12/19 07:51:26;;;;;;;11.90;10.47;;;3.40;89.40;;;;;;5016401;28;20560;-72
2022/12/19 07:53:53;;;;;;;10.87;9.17;;;3.30;89.60;;;;;;5015733;28;20457;-72
2022/12/19 07:56:19;;;;;;;12.10;9.40;;;3.40;89.60;;;;;;5015077;28;20793;-72
2022/12/19 07:58:47;;;;;;;11.00;9.00;;;3.30;89.60;;;;;;5013637;28;20452;-71
2022/12/19 08:01:14;;;;;;;11.00;9.90;;;3.30;89.60;;;;;;5013180;28;20496;-71
2022/12/19 08:03:41;;;;;;;9.83;8.50;;;3.40;89.70;;;;;;5013559;28;20437;-72
2022/12/19 08:06:08;;;;;;;11.17;9.97;;;3.40;89.80;;;;;;5013491;28;20456;-72
2022/12/19 08:08:36;;;;;;;9.93;8.93;;;3.40;89.60;;;;;;5013485;28;20444;-72
2022/12/19 08:11:07;;;;;;;10.60;9.27;;;3.40;89.40;;;;;;5013480;28;20469;-72
2022/12/19 08:13:34;;;;;;;10.43;9.27;;;3.60;89.50;;;;;;5013348;28;20491;-73
2022/12/19 08:16:02;;;;;;;10.83;9.67;;;3.60;88.80;;;;;;5013236;28;20457;-72
2022/12/19 08:18:29;;;;;;;12.43;9.63;;;3.70;88.90;;;;;;5013504;28;20954;-73
2022/12/19 08:20:56;;;;;;;10.97;8.97;;;3.70;88.40;;;;;;5013695;28;20511;-72
2022/12/19 08:23:23;;;;;;;10.80;8.40;;;3.80;88.40;;;;;;5013560;28;20444;-72
2022/12/19 08:25:58;;;;;;;11.03;9.23;;;3.90;88.10;;;;;;5013657;28;20441;-71
2022/12/19 08:28:25;;;;;;;9.30;8.10;;;3.90;88.10;;;;;;5013326;28;20937;-71
2022/12/19 08:30:51;;;;;;;11.03;7.40;;;4.00;87.90;;;;;;5013568;28;20472;-72
2022/12/19 08:33:19;;;;;;;9.77;8.47;;;4.00;87.90;;;;;;5013719;28;20449;-72
2022/12/19 08:35:46;;;;;;;8.23;7.40;;;4.10;87.80;;;;;;5013408;28;20451;-72
2022/12/19 08:38:13;;;;;;;8.13;7.33;;;4.00;87.60;;;;;;5013490;28;20451;-73
2022/12/19 08:40:39;;;;;;;9.40;6.87;;;4.00;87.80;;;;;;5013125;28;20957;-71
2022/12/19 08:43:06;;;;;;;9.20;8.10;;;4.10;87.80;;;;;;5013348;28;20451;-72
2022/12/19 08:45:33;;;;;;;9.47;7.57;;;4.10;88.00;;;;;;5013554;28;20445;-72
2022/12/19 08:47:59;;;;;;;10.40;8.73;;;4.20;87.80;;;;;;5013552;28;20455;-73
2022/12/19 08:50:28;;;;;;;8.70;7.80;;;4.20;87.70;;;;;;5013278;28;20460;-73
2022/12/19 08:52:54;;;;;;;8.73;7.40;;;4.20;87.80;;;;;;5013583;28;20441;-73
2022/12/19 08:55:21;;;;;;;7.63;6.83;;;4.10;88.10;;;;;;5013607;28;20799;-72
2022/12/19 08:57:48;;;;;;;7.33;6.53;;;4.10;88.30;;;;;;5013461;28;20452;-73
2022/12/19 09:00:15;;;;;;;9.07;8.17;;;4.20;88.20;;;;;;5013894;28;20480;-72
2022/12/19 09:02:42;;;;;;;7.80;6.73;;;4.20;87.90;;;;;;5016345;28;20487;-72
2022/12/19 09:05:09;;;;;;;8.13;7.33;;;4.20;87.70;;;;;;5016330;28;20448;-73
2022/12/19 09:07:38;;;;;;;9.00;7.23;;;4.30;87.70;;;;;;5016584;28;20459;-73
2022/12/19 09:10:06;;;;;;;9.20;7.90;;;4.40;87.50;;;;;;5016545;28;20452;-73
2022/12/19 09:12:33;;;;;;;8.93;8.00;;;4.40;87.50;;;;;;5016732;28;20460;-73
2022/12/19 09:14:59;;;;;;;8.30;7.50;;;4.40;87.60;;;;;;5016449;28;20452;-74
2022/12/19 09:17:27;;;;;;;9.57;8.27;;;4.50;87.60;;;;;;5016364;28;20455;-71
2022/12/19 09:19:54;;;;;;;10.23;8.10;;;4.70;88.80;;;;;;5016090;28;20964;-73
2022/12/19 09:22:21;;;;;;;8.20;7.40;;;4.70;87.10;;;;;;5016190;28;20495;-72
2022/12/19 09:24:49;;;;;;;8.97;7.63;;;4.60;86.80;;;;;;5016285;28;20456;-73
2022/12/19 09:27:16;;;;;;;9.73;8.27;;;4.70;87.00;;;;;;5016111;28;20444;-73
2022/12/19 09:29:43;;;;;;;9.77;8.13;;;4.70;86.80;;;;;;5016332;28;20476;-72
2022/12/19 09:32:10;;;;;;;10.73;8.50;;;4.80;87.00;;;;;;5016247;28;20496;-73
2022/12/19 09:34:37;;;;;;;8.87;8.03;;;5.00;87.30;;;;;;5016145;28;20448;-72
2022/12/19 09:37:04;;;;;;;9.00;7.50;;;5.20;86.70;;;;;;5016168;28;20471;-73
2022/12/19 09:39:31;;;;;;;7.73;6.40;;;5.20;85.90;;;;;;5016337;28;20448;-73
2022/12/19 09:42:32;;;;;;;10.97;8.70;;;5.30;86.20;;;;;;5015930;28;20488;-73
2022/12/19 09:45:17;;;;;;;9.00;7.87;;;5.30;85.80;;;;;;4996142;28;20463;-73
2022/12/19 09:47:48;;;;;;;10.70;8.10;;;5.40;86.20;;;;;;5016013;28;20429;-73
2022/12/19 09:50:28;;;;;;;8.43;7.07;;;5.50;85.70;;;;;;5016044;28;20469;-72
2022/12/19 09:53:00;;;;;;;7.67;6.87;;;5.40;85.80;;;;;;5015460;28;20436;-72
2022/12/19 09:55:32;;;;;;;9.37;7.67;;;5.30;85.90;;;;;;5015776;28;20433;-73
2022/12/19 09:58:06;;;;;;;7.80;6.70;;;5.30;85.90;;;;;;5015946;28;20479;-73
2022/12/19 10:00:36;;;;;;;8.40;7.60;;;5.30;85.80;;;;;;5015610;28;20448;-73
2022/12/19 10:03:11;;;;;;;9.03;7.03;;;5.30;85.80;;;;;;5016406;28;20468;-72
2022/12/19 10:05:43;;;;;;;9.27;8.30;;;5.40;85.50;;;;;;5016274;28;20459;-73
2022/12/19 10:08:16;;;;;;;8.20;7.27;;;5.50;85.60;;;;;;5015564;28;20461;-73
2022/12/19 10:10:54;;;;;;;8.60;6.63;;;5.60;84.80;;;;;;5015460;28;20503;-73
2022/12/19 10:13:33;;;;;;;8.50;7.07;;;5.50;85.40;;;;;;5014674;28;20429;-72
2022/12/19 10:16:07;;;;;;;7.37;6.50;;;5.50;85.70;;;;;;5016030;28;20429;-72
2022/12/19 10:18:42;;;;;;;7.33;6.20;;;5.60;85.60;;;;;;5015505;28;20464;-73
2022/12/19 10:21:15;;;;;;;8.10;6.90;;;5.80;86.00;;;;;;5014852;28;20831;-73
2022/12/19 10:24:01;;;;;;;7.97;6.10;;;5.90;85.70;;;;;;5015193;28;20911;-72
2022/12/19 10:26:33;;;;;;;7.70;6.73;;;5.80;84.40;;;;;;5015147;28;20429;-72
2022/12/19 10:29:15;;;;;;;9.77;7.83;;;5.80;84.70;;;;;;5015153;28;20436;-72
2022/12/19 10:31:53;;;;;;;7.67;6.70;;;5.80;84.90;;;;;;5015120;28;20465;-72
2022/12/19 10:34:23;;;;;;;8.60;7.20;;;5.80;85.00;;;;;;5015660;28;20761;-73
2022/12/19 10:36:53;;;;;;;7.67;6.27;;;5.90;85.00;;;;;;5015012;28;20445;-74
2022/12/19 10:39:29;;;;;;;7.30;6.60;;;6.10;85.10;;;;;;5014916;28;20436;-72
2022/12/19 10:42:02;;;;;;;7.73;6.53;;;6.30;84.20;;;;;;5014740;28;20493;-72
2022/12/19 10:44:34;;;;;;;7.60;6.57;;;6.40;83.30;;;;;;5014931;28;20433;-73
2022/12/19 10:47:01;;;;;;;6.90;6.13;;;6.40;83.50;;;;;;5014514;28;20953;-73
2022/12/19 10:49:28;;;;;;;6.80;6.10;;;6.50;83.20;;;;;;5014883;28;20453;-73
2022/12/19 10:52:00;;;;;;;7.77;6.90;;;6.70;83.10;;;;;;5014614;28;20472;-72
2022/12/19 10:54:38;;;;;;;6.33;5.73;;;6.60;82.20;;;;;;5014830;28;20441;-72
2022/12/19 10:57:22;;;;;;;6.97;6.27;;;6.50;82.60;;;;;;5014643;28;20435;-72
2022/12/19 10:59:58;;;;;;;8.53;7.07;;;6.50;82.50;;;;;;5013114;28;20457;-74
2022/12/19 11:02:41;;;;;;;9.77;7.33;;;6.50;82.60;;;;;;5014359;28;20514;-72
2022/12/19 11:05:22;;;;;;;7.70;6.47;;;6.40;82.20;;;;;;5014576;28;20867;-73
2022/12/19 11:07:59;;;;;;;7.03;6.33;;;6.50;82.90;;;;;;5014140;28;20960;-74
2022/12/19 11:10:37;;;;;;;8.17;7.10;;;6.60;82.40;;;;;;5014306;28;20435;-73
2022/12/19 11:13:20;;;;;;;8.70;7.17;;;6.70;82.40;;;;;;5014354;28;20436;-74
2022/12/19 11:15:49;;;;;;;8.00;6.40;;;6.90;81.30;;;;;;5014280;28;20474;-74
2022/12/19 11:18:17;;;;;;;11.10;7.30;;;6.70;81.10;;;;;;5014262;28;20463;-73
2022/12/19 11:20:54;;;;;;;7.70;6.90;;;6.60;81.60;;;;;;5014443;28;20472;-74
2022/12/19 11:23:23;;;;;;;7.47;6.70;;;6.80;81.20;;;;;;5013823;28;20469;-73
2022/12/19 11:25:55;;;;;;;7.60;6.90;;;6.80;81.10;;;;;;5014620;28;20440;-74
2022/12/19 11:28:25;;;;;;;9.20;7.20;;;6.90;81.30;;;;;;5014219;28;20432;-73
2022/12/19 11:30:58;;;;;;;6.37;5.77;;;7.10;81.50;;;;;;5013689;28;20464;-74
2022/12/19 11:33:25;;;;;;;9.20;7.27;;;7.20;80.20;;;;;;5014030;28;20453;-72
2022/12/19 11:35:54;;;;;;;8.73;7.30;;;7.30;79.90;;;;;;5013654;28;20929;-73
2022/12/19 11:38:37;;;;;;;7.27;6.53;;;7.30;80.20;;;;;;5013861;28;20452;-73
2022/12/19 11:41:12;;;;;;;7.40;6.60;;;7.30;80.00;;;;;;5013855;28;20465;-74
2022/12/19 11:43:47;;;;;;;7.20;6.50;;;7.40;80.10;;;;;;5013826;28;20495;-74
2022/12/19 11:46:29;;;;;;;8.83;7.93;;;7.40;80.50;;;;;;5013842;28;20468;-71
2022/12/19 11:49:02;;;;;;;7.87;6.67;;;7.50;80.00;;;;;;5013893;28;20468;-72
2022/12/19 11:51:34;;;;;;;8.03;7.23;;;7.70;79.90;;;;;;5013404;28;20845;-73
2022/12/19 11:54:09;;;;;;;7.37;6.57;;;7.90;79.20;;;;;;5013799;28;20443;-73
2022/12/19 11:56:36;;;;;;;7.87;7.07;;;8.10;79.40;;;;;;5013693;28;20470;-73
2022/12/19 11:59:13;;;;;;;7.50;6.70;;;8.10;79.20;;;;;;5014358;28;20452;-74
2022/12/19 12:01:53;;;;;;;8.40;7.00;;;8.20;79.40;;;;;;5015221;28;20483;-73
2022/12/19 12:04:45;;;;;;;8.97;7.27;;;8.40;78.90;;;;;;5016796;28;20818;-74
2022/12/19 12:07:12;;;;;;;9.23;8.43;;;8.60;78.50;;;;;;5018588;28;20433;-74
2022/12/19 12:09:45;;;;;;;8.37;7.57;;;8.80;77.70;;;;;;5017540;28;20452;-73
2022/12/19 12:12:22;;;;;;;8.53;7.73;;;8.90;77.50;;;;;;5017323;28;20599;-73
2022/12/19 12:15:03;;;;;;;10.20;8.77;;;9.30;76.90;;;;;;5016800;28;20424;-74
2022/12/19 12:17:50;;;;;;;10.77;8.80;;;9.80;75.40;;;;;;5016005;28;20886;-73
2022/12/19 12:20:29;;;;;;;7.20;6.37;;;10.50;73.30;;;;;;5017730;28;20447;-72
2022/12/19 12:23:08;;;;;;;7.80;6.97;;;11.00;71.30;;;;;;5017365;28;20472;-74
2022/12/19 12:25:50;;;;;;;8.10;7.07;;;11.40;70.00;;;;;;5016219;28;20495;-74
2022/12/19 12:28:50;;;;;;;7.97;7.17;;;11.20;70.30;;;;;;5016139;28;20435;-73
2022/12/19 12:31:33;;;;;;;9.17;8.27;;;11.90;70.10;;;;;;5016682;28;20464;-73
2022/12/19 12:34:22;;;;;;;8.43;7.43;;;12.40;66.60;;;;;;5016556;28;20479;-74
2022/12/19 12:36:59;;;;;;;6.67;6.07;;;12.20;66.40;;;;;;5019988;28;20918;-74
2022/12/19 12:39:36;;;;;;;5.37;4.93;;;11.80;67.70;;;;;;5021217;28;20435;-75
2022/12/19 12:42:14;;;;;;;6.30;5.70;;;11.20;69.70;;;;;;5021026;28;20468;-75
2022/12/19 12:44:42;;;;;;;6.07;5.50;;;10.80;70.30;;;;;;5020639;28;20438;-74
2022/12/19 12:47:16;;;;;;;6.90;5.73;;;10.40;71.40;;;;;;5021879;28;20453;-74
2022/12/19 12:49:47;;;;;;;6.00;5.37;;;10.00;72.50;;;;;;5021622;28;20440;-74
2022/12/19 12:52:16;;;;;;;8.60;6.07;;;9.80;73.50;;;;;;5020359;28;20997;-70
2022/12/19 12:54:45;;;;;;;6.43;5.73;;;9.60;73.80;;;;;;5018298;28;20949;-71
2022/12/19 12:57:40;;;;;;;6.27;5.73;;;9.30;74.60;;;;;;5018828;28;20953;-73
2022/12/19 13:00:25;;;;;;;6.57;5.83;;;9.40;75.10;;;;;;5019637;28;20443;-73
2022/12/19 13:02:57;;;;;;;6.40;5.60;;;9.30;75.40;;;;;;5019337;28;20480;-72
2022/12/19 13:05:35;;;;;;;6.70;6.00;;;9.30;75.70;;;;;;5018828;28;20432;-72
2022/12/19 13:08:22;;;;;;;6.47;5.80;;;9.40;75.50;;;;;;5018161;28;20918;-73
2022/12/19 13:10:55;;;;;;;6.67;6.00;;;9.50;75.10;;;;;;5019692;28;20464;-73
2022/12/19 13:13:50;;;;;;;8.23;7.43;;;9.40;75.70;;;;;;5018348;28;20910;-71
2022/12/19 13:16:48;;;;;;;7.00;6.30;;;9.30;76.40;;;;;;5017961;28;20969;-71
2022/12/19 13:19:17;;;;;;;8.80;6.80;;;8.90;77.40;;;;;;5018249;28;20455;-72
2022/12/19 13:22:17;;;;;;;8.17;7.37;;;8.90;77.70;;;;;;5018880;28;21020;-73
2022/12/19 13:24:48;;;;;;;7.60;6.90;;;8.30;79.40;;;;;;4986300;28;20444;-73
2022/12/19 13:27:35;;;;;;;7.23;6.53;;;8.00;80.80;;;;;;5019624;28;20531;-71
2022/12/19 13:30:19;;;;;;;7.60;6.80;;;8.20;80.40;;;;;;5018189;28;20798;-71
2022/12/19 13:33:09;;;;;;;6.80;6.20;;;8.30;79.40;;;;;;5017986;28;20429;-71
2022/12/19 13:35:37;;;;;;;6.17;5.57;;;8.20;79.50;;;;;;5018643;28;20507;-70
2022/12/19 13:38:19;;;;;;;6.03;5.23;;;8.30;79.60;;;;;;5018017;28;20453;-70
2022/12/19 13:40:58;;;;;;;6.43;5.70;;;8.30;79.20;;;;;;5018381;28;20472;-71
2022/12/19 13:43:48;;;;;;;6.83;6.13;;;8.40;79.00;;;;;;5018158;28;20483;-71
2022/12/19 13:46:27;;;;;;;7.60;6.90;;;8.50;78.80;;;;;;5017314;28;20455;-69
2022/12/19 13:48:59;;;;;;;7.10;6.40;;;8.20;79.30;;;;;;5017547;28;20464;-71
2022/12/19 13:51:26;;;;;;;6.63;6.03;;;8.10;79.80;;;;;;5017564;28;20469;-70
2022/12/19 13:53:54;;;;;;;6.30;5.70;;;8.10;79.80;;;;;;5017651;28;20519;-70
2022/12/19 13:56:22;;;;;;;7.20;6.20;;;8.00;79.90;;;;;;5017087;28;20459;-71
2022/12/19 13:58:52;;;;;;;8.20;6.47;;;7.90;80.10;;;;;;5018131;28;20448;-71
2022/12/19 14:01:26;;;;;;;5.93;5.23;;;7.90;80.20;;;;;;5017316;28;20486;-70
2022/12/19 14:03:54;;;;;;;6.30;5.70;;;7.80;80.60;;;;;;5017699;28;20468;-70
2022/12/19 14:06:24;;;;;;;6.20;5.60;;;7.70;81.00;;;;;;5017185;28;20449;-71
2022/12/19 14:08:55;;;;;;;6.57;5.80;;;7.80;81.10;;;;;;5017743;28;20456;-71
2022/12/19 14:11:23;;;;;;;6.70;6.00;;;7.80;81.00;;;;;;5017679;28;20551;-72
2022/12/19 14:16:37;;;;;;;7.50;6.40;;;7.90;80.40;;;;;;5019257;28;20918;-73
2022/12/19 14:19:03;;;;;;;6.97;5.63;;;7.90;80.60;;;;;;5016795;28;20448;-72
2022/12/19 14:21:31;;;;;;;6.53;5.53;;;7.90;80.40;;;;;;5017238;28;20476;-72
2022/12/19 14:24:12;;;;;;;5.80;5.17;;;7.90;80.80;;;;;;5017471;28;20484;-72
2022/12/19 14:26:42;;;;;;;6.13;5.53;;;7.90;80.50;;;;;;5016438;28;20866;-71
2022/12/19 14:29:13;;;;;;;6.70;5.80;;;7.90;80.70;;;;;;5016881;28;20468;-71
2022/12/19 14:31:42;;;;;;;7.93;6.70;;;7.80;80.80;;;;;;5017021;28;20479;-73
2022/12/19 14:34:17;;;;;;;6.87;6.13;;;7.80;81.00;;;;;;5017358;28;20449;-73
2022/12/19 14:36:49;;;;;;;6.00;5.43;;;7.70;81.00;;;;;;5017364;28;20440;-73
2022/12/19 14:39:18;;;;;;;5.73;5.23;;;7.60;80.90;;;;;;5017501;28;20429;-72
2022/12/19 14:44:53;;;;;;;6.53;5.83;;;7.40;81.20;;;;;;5017393;28;20459;-72
2022/12/19 14:47:23;;;;;;;5.20;4.67;;;7.60;81.10;;;;;;5017144;28;20440;-72
2022/12/19 14:49:51;;;;;;;6.47;5.47;;;7.60;80.80;;;;;;5017312;28;20448;-71
2022/12/19 14:52:42;;;;;;;6.80;5.37;;;7.50;81.10;;;;;;5017342;28;20480;-72
2022/12/19 14:55:30;;;;;;;6.03;5.43;;;7.60;80.90;;;;;;5017554;28;20432;-73
2022/12/19 14:58:06;;;;;;;5.57;4.97;;;7.60;80.50;;;;;;5016511;28;20779;-73
2022/12/19 15:00:42;;;;;;;5.57;4.70;;;7.70;80.20;;;;;;5017997;28;20424;-74
2022/12/19 15:03:09;;;;;;;5.97;5.37;;;7.70;80.00;;;;;;5017244;28;20464;-73
2022/12/19 15:05:36;;;;;;;6.23;5.30;;;7.70;80.00;;;;;;5017832;28;20455;-74
2022/12/19 15:08:03;;;;;;;5.57;5.03;;;7.60;80.10;;;;;;5017629;28;20448;-73
2022/12/19 15:10:33;;;;;;;8.57;5.53;;;7.60;80.30;;;;;;5017074;28;20459;-74
2022/12/19 15:13:21;;;;;;;5.60;5.00;;;7.60;80.10;;;;;;5018029;28;20967;-74
2022/12/19 15:15:53;;;;;;;8.40;7.60;;;7.60;80.10;;;;;;5017017;28;20934;-74
2022/12/19 15:18:23;;;;;;;7.73;6.83;;;7.50;80.10;;;;;;5016326;28;20468;-75
2022/12/19 15:20:50;;;;;;;8.30;7.60;;;7.40;80.30;;;;;;5017274;28;20849;-72
2022/12/19 15:23:18;;;;;;;7.50;6.77;;;7.30;80.40;;;;;;5017150;28;20875;-73
2022/12/19 15:25:45;;;;;;;8.47;7.73;;;7.30;80.50;;;;;;5016621;28;20463;-73
2022/12/19 15:28:15;;;;;;;9.30;8.40;;;7.20;80.70;;;;;;5016630;28;20452;-72
2022/12/19 15:30:48;;;;;;;8.33;7.60;;;7.10;80.90;;;;;;5016851;28;20464;-71
2022/12/19 15:33:16;;;;;;;6.90;5.87;;;7.00;81.10;;;;;;5016063;28;20437;-71
2022/12/19 15:35:43;;;;;;;7.67;6.97;;;6.90;81.50;;;;;;5015284;28;20830;-71
2022/12/19 15:38:10;;;;;;;8.00;7.20;;;6.80;81.70;;;;;;5014838;28;20444;-72
2022/12/19 15:40:39;;;;;;;8.10;7.30;;;6.80;81.90;;;;;;5013796;28;20479;-72
2022/12/19 15:43:06;;;;;;;9.27;8.37;;;6.70;82.00;;;;;;5013978;28;20480;-71
2022/12/19 15:45:34;;;;;;;10.83;9.40;;;6.70;82.00;;;;;;5014042;28;20448;-72
2022/12/19 15:48:01;;;;;;;9.77;8.77;;;6.60;82.20;;;;;;5014122;28;20527;-71
2022/12/19 15:50:31;;;;;;;12.17;10.97;;;6.60;82.30;;;;;;5014102;28;20456;-71
2022/12/19 15:53:00;;;;;;;11.40;10.33;;;6.50;82.60;;;;;;5014527;28;20453;-72
2022/12/19 15:55:29;;;;;;;8.07;7.27;;;6.40;82.60;;;;;;5013859;28;20468;-70
2022/12/19 15:57:58;;;;;;;9.63;6.50;;;6.30;82.90;;;;;;5014040;28;20444;-71
2022/12/19 16:00:28;;;;;;;7.50;6.40;;;6.30;83.60;;;;;;5013785;28;20448;-71
2022/12/19 16:02:57;;;;;;;8.50;7.73;;;6.30;84.20;;;;;;5013448;28;20495;-70
2022/12/19 16:05:24;;;;;;;6.60;5.90;;;6.30;84.40;;;;;;5013842;28;20456;-71
2022/12/19 16:07:51;;;;;;;9.33;7.30;;;6.20;84.60;;;;;;5013962;28;20452;-71
2022/12/19 16:10:18;;;;;;;7.17;6.57;;;6.20;84.60;;;;;;5013365;28;20983;-71
2022/12/19 16:12:48;;;;;;;7.50;6.70;;;6.10;84.40;;;;;;5013573;28;20471;-72
2022/12/19 16:15:24;;;;;;;7.77;6.23;;;6.00;84.60;;;;;;5013978;28;20876;-71
2022/12/19 16:17:51;;;;;;;6.80;6.20;;;6.10;85.00;;;;;;5013767;28;20468;-73
2022/12/19 16:20:21;;;;;;;7.10;6.40;;;6.20;84.50;;;;;;5013556;28;20449;-72
2022/12/19 16:22:48;;;;;;;7.10;6.27;;;6.20;84.10;;;;;;5013418;28;20444;-73
2022/12/19 16:25:15;;;;;;;6.77;6.17;;;6.20;83.90;;;;;;5013368;28;20492;-70
2022/12/19 16:27:42;;;;;;;7.77;6.00;;;6.20;83.50;;;;;;5013476;28;20456;-71
2022/12/19 16:30:18;;;;;;;9.37;7.60;;;6.10;83.70;;;;;;5013286;28;20451;-71
2022/12/19 16:32:45;;;;;;;6.20;5.60;;;6.10;83.50;;;;;;5012907;28;20468;-71
2022/12/19 16:35:15;;;;;;;6.90;6.10;;;6.00;83.90;;;;;;5013535;28;20449;-70
2022/12/19 16:37:43;;;;;;;7.10;6.03;;;5.80;84.70;;;;;;5013421;28;20479;-71
2022/12/19 16:40:14;;;;;;;7.17;6.47;;;5.70;85.20;;;;;;5013183;28;20454;-71
2022/12/19 16:42:42;;;;;;;7.13;6.43;;;5.70;85.60;;;;;;5013212;28;20496;-71
2022/12/19 16:45:17;;;;;;;6.80;6.20;;;5.70;85.90;;;;;;5012782;28;21005;-71
2022/12/19 16:47:44;;;;;;;6.77;6.10;;;5.70;86.20;;;;;;5013275;28;20849;-71
2022/12/19 16:50:18;;;;;;;7.17;6.47;;;5.70;86.40;;;;;;5012765;28;20960;-71
2022/12/19 16:52:46;;;;;;;7.73;6.67;;;5.70;86.10;;;;;;5012791;28;20999;-72
2022/12/19 16:55:14;;;;;;;7.67;6.97;;;5.70;85.70;;;;;;5013241;28;20437;-70
2022/12/19 16:57:41;;;;;;;8.03;6.97;;;5.70;85.60;;;;;;5013019;28;20452;-71
2022/12/19 17:00:13;;;;;;;8.17;6.40;;;5.70;85.90;;;;;;5012739;28;20448;-71
2022/12/19 17:02:43;;;;;;;7.80;7.00;;;5.60;86.20;;;;;;5012710;28;20480;-71
2022/12/19 17:05:24;;;;;;;8.03;6.63;;;5.60;86.10;;;;;;5012900;28;20867;-72
2022/12/19 17:07:53;;;;;;;6.70;6.10;;;5.50;86.30;;;;;;5012953;28;20451;-70
2022/12/19 17:10:23;;;;;;;7.27;6.63;;;5.50;86.90;;;;;;5012913;28;20445;-70
2022/12/19 17:12:50;;;;;;;6.27;5.67;;;5.40;87.20;;;;;;5012622;28;20941;-71
2022/12/19 17:15:23;;;;;;;7.33;6.53;;;5.40;87.20;;;;;;5012858;28;20858;-75
2022/12/19 17:17:49;;;;;;;6.80;6.10;;;5.40;86.90;;;;;;5013019;28;20448;-72